Genco Predator — V7GK2 — position and weather

sailwx.info

Track history (hours):
 
Tides and Currents Weather Stations Pressure Air Temp Water Temp Dewpoint Dewpoint Depression Visibility Wind Speed Wind Dir Waves Ship Positions

Genco Predator

Last reported at 2018-Feb-20 17:23 UTC. Time now 2018-May-24 00:36 UTC.
Position N 09°15' W 079°55'.
Warning: this ship's position is months out of date.

Length 190 m; draft 8.6 m.

Type: Cargo ship. MMSI: 538002113.

Date/timePositionNaut miles runAvg speedWind from/ knotsBaromVisibWave heightAir tempDewpointWater temp
2018-Feb-20 17:23N 09°15' W 079°55'0 0.0
2018-Feb-20 16:59N 09°15' W 079°55'0 0.1
2018-Feb-20 16:23N 09°15' W 079°55'0 0.0
2018-Feb-20 15:59N 09°15' W 079°55'0 0.0
2018-Feb-20 14:41N 09°15' W 079°55'0 0.1
2018-Feb-20 14:29N 09°15' W 079°55'0 0.0
2018-Feb-20 13:35N 09°15' W 079°55'0 0.0
2018-Feb-20 13:23N 09°15' W 079°55'0 0.1
2018-Feb-20 12:59N 09°15' W 079°55'0 0.0
2018-Feb-20 12:29N 09°15' W 079°55'0 0.0
2018-Feb-20 11:59N 09°15' W 079°55'0 0.0
2018-Feb-20 11:29N 09°15' W 079°55'0 0.0
2018-Feb-20 10:59N 09°15' W 079°55'0 0.0
2018-Feb-20 10:29N 09°15' W 079°55'0 0.0
2018-Feb-20 09:59N 09°15' W 079°55'0 0.0
2018-Feb-20 09:29N 09°15' W 079°55'0 0.0
2018-Feb-20 08:53N 09°15' W 079°55'0 0.0
2018-Feb-20 08:23N 09°15' W 079°55'0 0.0
2018-Feb-20 07:56N 09°15' W 079°55'0 0.2
2018-Feb-20 07:30N 09°15' W 079°55'1 2.9
2018-Feb-20 06:59N 09°16' W 079°55'0 0.4
2018-Feb-20 06:30N 09°16' W 079°55'0 0.6
2018-Feb-20 05:49N 09°17' W 079°55'1 1.6
2018-Feb-20 05:30N 09°17' W 079°55'2 3.5
2018-Feb-20 05:00N 09°19' W 079°55'3 6.4
2018-Feb-20 04:31N 09°22' W 079°56'0 0.6
2018-Feb-20 03:59N 09°22' W 079°56'0 0.0
2018-Feb-20 03:29N 09°22' W 079°56'0 0.0
2018-Feb-20 02:59N 09°22' W 079°56'0 0.0
2018-Feb-20 02:29N 09°22' W 079°56'0 0.0
2018-Feb-20 01:56N 09°22' W 079°56'0 0.0
2018-Feb-20 01:29N 09°22' W 079°56'0 0.0
2018-Feb-20 00:59N 09°22' W 079°56'0 0.0
2018-Feb-20 00:29N 09°22' W 079°56'0 0.0
2018-Feb-19 23:59N 09°22' W 079°56'0 0.0
2018-Feb-19 23:29N 09°22' W 079°56'0 0.0
2018-Feb-19 22:59N 09°22' W 079°56'0 0.0
2018-Feb-19 22:29N 09°22' W 079°56'0 0.0
2018-Feb-19 21:59N 09°22' W 079°56'0 0.0
2018-Feb-19 21:23N 09°22' W 079°56'0 0.0
2018-Feb-19 20:59N 09°22' W 079°56'0 0.0
2018-Feb-19 20:29N 09°22' W 079°56'0 0.0
2018-Feb-19 19:59N 09°22' W 079°56'0 0.0
2018-Feb-19 19:29N 09°22' W 079°56'0 0.0
2018-Feb-19 18:59N 09°22' W 079°56'0 0.0
2018-Feb-19 18:29N 09°22' W 079°56'0 0.0
2018-Feb-19 17:59N 09°22' W 079°56'0 0.0
2018-Feb-19 17:29N 09°22' W 079°56'0 0.0
2018-Feb-19 16:59N 09°22' W 079°56'0 0.0
2018-Feb-19 16:29N 09°22' W 079°56'0 0.0
2018-Feb-19 15:59N 09°22' W 079°56'0 0.0
2018-Feb-19 15:29N 09°22' W 079°56'4 2.2
2018-Feb-19 13:51N 09°26' W 079°56'0 0.2
2018-Feb-19 13:27N 09°26' W 079°56'0 0.0
2018-Feb-19 12:54N 09°26' W 079°56'0 0.0
2018-Feb-19 12:21N 09°26' W 079°56'0 0.0
2018-Feb-19 12:00N 09°26' W 079°56'0 0.1
2018-Feb-19 11:30N 09°26' W 079°56'0 0.0
2018-Feb-19 10:54N 09°26' W 079°56'0 0.0
2018-Feb-19 10:30N 09°26' W 079°56'0 0.0
2018-Feb-19 10:00N 09°26' W 079°56'0 0.0
2018-Feb-19 09:18N 09°26' W 079°56'0 0.0
2018-Feb-19 09:00N 09°26' W 079°56'0 0.0
2018-Feb-19 08:24N 09°26' W 079°56'0 0.0
2018-Feb-19 07:54N 09°26' W 079°56'0 0.0
2018-Feb-19 07:30N 09°26' W 079°56'0 0.0
2018-Feb-19 06:54N 09°26' W 079°56'0 0.1
2018-Feb-19 06:30N 09°26' W 079°56'0 0.1
2018-Feb-19 06:00N 09°26' W 079°56'0 0.1
2018-Feb-19 05:30N 09°26' W 079°56'0 0.1
2018-Feb-19 05:00N 09°26' W 079°56'0 0.0
2018-Feb-19 04:30N 09°26' W 079°56'0 0.1
2018-Feb-19 04:00N 09°26' W 079°56'0 0.1
2018-Feb-19 03:30N 09°26' W 079°56'0 0.1
2018-Feb-19 03:00N 09°26' W 079°56'0 0.1
2018-Feb-19 02:30N 09°26' W 079°56'0 0.0
2018-Feb-19 02:00N 09°26' W 079°56'0 0.0
2018-Feb-19 01:30N 09°26' W 079°56'0 0.0
2018-Feb-19 01:00N 09°26' W 079°56'0 0.1
2018-Feb-19 00:30N 09°26' W 079°56'0 0.0
2018-Feb-18 23:57N 09°26' W 079°56'0 0.0
2018-Feb-18 23:30N 09°26' W 079°56'0 0.1
2018-Feb-18 23:00N 09°26' W 079°56'0 0.5
2018-Feb-18 22:30N 09°26' W 079°56'0 0.6
2018-Feb-18 22:00N 09°26' W 079°56'2 3.4
2018-Feb-18 21:30N 09°26' W 079°54'4 7.8
2018-Feb-18 21:00N 09°30' W 079°53'30211.3
2018-Feb-17 18:21N 11°05' W 075°01'512.8
2018-Feb-17 17:58N 11°06' W 074°57'510.8
2018-Feb-17 17:30N 11°07' W 074°51'611.3
2018-Feb-17 16:58N 11°02' W 074°48'4 8.6
2018-Feb-17 16:29N 10°58' W 074°46'0 0.0
2018-Feb-17 15:59N 10°58' W 074°46'0 0.0
2018-Feb-17 15:29N 10°58' W 074°46'0 0.0
2018-Feb-17 14:56N 10°58' W 074°46'0 0.0
2018-Feb-17 14:29N 10°58' W 074°46'0 0.0
2018-Feb-17 13:59N 10°58' W 074°46'0 0.0
2018-Feb-17 13:29N 10°58' W 074°46'0 0.0
2018-Feb-17 12:59N 10°58' W 074°46'0 0.0
2018-Feb-17 12:29N 10°58' W 074°46'0 0.0
2018-Feb-17 11:59N 10°58' W 074°46'0 0.0
2018-Feb-17 11:26N 10°58' W 074°46'0 0.0
2018-Feb-17 10:56N 10°58' W 074°46'0 0.0
2018-Feb-17 10:29N 10°58' W 074°46'0 0.0
2018-Feb-17 09:59N 10°58' W 074°46'0 0.0
2018-Feb-17 09:29N 10°58' W 074°46'0 0.0
2018-Feb-17 08:59N 10°58' W 074°46'0 0.0
2018-Feb-17 08:29N 10°58' W 074°46'0 0.0
2018-Feb-17 07:56N 10°58' W 074°46'0 0.0
2018-Feb-17 07:23N 10°58' W 074°46'0 0.0
2018-Feb-17 06:59N 10°58' W 074°46'0 0.0
2018-Feb-17 06:29N 10°58' W 074°46'0 0.0
2018-Feb-17 05:59N 10°58' W 074°46'0 0.0
2018-Feb-17 05:29N 10°58' W 074°46'0 0.0
2018-Feb-17 04:59N 10°58' W 074°46'0 0.0
2018-Feb-17 04:29N 10°58' W 074°46'0 0.0
2018-Feb-17 03:59N 10°58' W 074°46'0 0.0
2018-Feb-17 03:26N 10°58' W 074°46'0 0.0
2018-Feb-17 02:59N 10°58' W 074°46'0 0.0
2018-Feb-17 02:29N 10°58' W 074°46'0 0.0
2018-Feb-17 01:59N 10°58' W 074°46'0 0.0
2018-Feb-17 01:29N 10°58' W 074°46'0 0.0
2018-Feb-17 00:59N 10°58' W 074°46'0 0.0
2018-Feb-17 00:26N 10°58' W 074°46'0 0.0
2018-Feb-16 23:59N 10°58' W 074°46'0 0.0
2018-Feb-16 23:29N 10°58' W 074°46'0 0.0
2018-Feb-16 22:59N 10°58' W 074°46'0 0.0
2018-Feb-16 22:29N 10°58' W 074°46'0 0.0
2018-Feb-16 21:59N 10°58' W 074°46'0 0.0
2018-Feb-16 21:29N 10°58' W 074°46'0 0.0
2018-Feb-16 20:59N 10°58' W 074°46'0 0.0
2018-Feb-16 20:29N 10°58' W 074°46'0 0.0
2018-Feb-16 19:59N 10°58' W 074°46'0 0.0
2018-Feb-16 19:29N 10°58' W 074°46'0 0.0
2018-Feb-16 18:59N 10°58' W 074°46'0 0.0
2018-Feb-16 18:29N 10°58' W 074°46'0 0.0
2018-Feb-16 17:59N 10°58' W 074°46'0 0.0
2018-Feb-16 17:29N 10°58' W 074°46'0 0.0
2018-Feb-16 16:59N 10°58' W 074°46'0 0.0
2018-Feb-16 16:20N 10°58' W 074°46'0 0.0
2018-Feb-16 15:59N 10°58' W 074°46'0 0.0
2018-Feb-16 15:29N 10°58' W 074°46'0 0.0
2018-Feb-16 14:59N 10°58' W 074°46'0 0.0
2018-Feb-16 14:29N 10°58' W 074°46'0 0.0
2018-Feb-16 13:59N 10°58' W 074°46'0 0.0
2018-Feb-16 13:23N 10°58' W 074°46'0 0.0
2018-Feb-16 12:59N 10°58' W 074°46'0 0.0
2018-Feb-16 12:29N 10°58' W 074°46'0 0.0
2018-Feb-16 11:53N 10°58' W 074°46'0 0.0
2018-Feb-16 11:29N 10°58' W 074°46'0 0.0
2018-Feb-16 10:47N 10°58' W 074°46'0 0.0
2018-Feb-16 10:29N 10°58' W 074°46'0 0.0
2018-Feb-16 02:41N 10°58' W 074°46'0 0.0
2018-Feb-16 02:23N 10°58' W 074°46'0 0.0
2018-Feb-16 01:59N 10°58' W 074°46'0 0.0
2018-Feb-16 01:29N 10°58' W 074°46'0 0.0
2018-Feb-16 00:59N 10°58' W 074°46'0 0.0
2018-Feb-16 00:29N 10°58' W 074°46'0 0.0
2018-Feb-15 23:59N 10°58' W 074°46'0 0.0
2018-Feb-15 20:50N 10°58' W 074°46'0 0.0
2018-Feb-15 13:02N 10°58' W 074°46'0 0.0
2018-Feb-15 12:44N 10°58' W 074°46'0 0.0
2018-Feb-15 12:29N 10°58' W 074°46'0 0.0
2018-Feb-15 11:59N 10°58' W 074°46'0 0.0
2018-Feb-15 09:59N 10°58' W 074°46'0 0.0
2018-Feb-15 09:17N 10°58' W 074°46'0 0.0
2018-Feb-15 06:20N 10°58' W 074°46'0 0.0
2018-Feb-15 05:56N 10°58' W 074°46'0 0.0
2018-Feb-15 05:23N 10°58' W 074°46'0 0.0
2018-Feb-15 04:56N 10°58' W 074°46'0 0.0
2018-Feb-15 03:29N 10°58' W 074°46'0 0.0
2018-Feb-14 19:35N 10°58' W 074°46'0 0.3
2018-Feb-14 19:28N 10°58' W 074°45'1 1.2
2018-Feb-14 19:00N 10°59' W 074°46'0 0.0
2018-Feb-14 18:30N 10°59' W 074°46'0 0.0
2018-Feb-14 18:00N 10°59' W 074°46'0 0.0
2018-Feb-14 17:30N 10°59' W 074°46'0 0.0
2018-Feb-14 17:00N 10°59' W 074°46'0 0.0
2018-Feb-14 16:30N 10°59' W 074°46'0 0.0
2018-Feb-14 16:00N 10°59' W 074°46'0 0.0
2018-Feb-14 15:30N 10°59' W 074°46'0 0.0
2018-Feb-14 15:00N 10°59' W 074°46'0 0.0
2018-Feb-14 14:27N 10°59' W 074°46'0 0.0
2018-Feb-14 14:00N 10°59' W 074°46'0 0.0
2018-Feb-14 13:30N 10°59' W 074°46'0 0.0
2018-Feb-14 13:00N 10°59' W 074°46'0 0.0
2018-Feb-14 12:30N 10°59' W 074°46'0 0.0
2018-Feb-14 11:57N 10°59' W 074°46'0 0.0
2018-Feb-13 23:42N 10°59' W 074°46'0 0.0
2018-Feb-13 18:54N 10°59' W 074°46'0 0.0
2018-Feb-13 17:57N 10°59' W 074°46'0 0.0
2018-Feb-13 17:21N 10°59' W 074°46'0 0.0
2018-Feb-13 15:18N 10°59' W 074°46'0 0.0
2018-Feb-13 15:00N 10°59' W 074°46'0 0.0
2018-Feb-13 14:21N 10°59' W 074°46'0 0.0
2018-Feb-13 13:51N 10°59' W 074°46'0 0.0
2018-Feb-13 13:12N 10°59' W 074°46'0 0.0
2018-Feb-13 13:00N 10°59' W 074°46'0 0.0
2018-Feb-13 12:24N 10°59' W 074°46'0 0.0
2018-Feb-12 19:42N 10°59' W 074°46'0 0.0
2018-Feb-12 18:15N 10°59' W 074°46'0 0.0
2018-Feb-12 18:00N 10°59' W 074°46'0 0.0
2018-Feb-12 17:27N 10°59' W 074°46'0 0.0
2018-Feb-12 17:00N 10°59' W 074°46'0 0.0
2018-Feb-12 16:27N 10°59' W 074°46'0 0.0
2018-Feb-12 16:00N 10°59' W 074°46'0 0.0
2018-Feb-12 15:12N 10°59' W 074°46'0 0.0
2018-Feb-12 13:27N 10°59' W 074°46'0 0.0
2018-Feb-12 13:00N 10°59' W 074°46'0 0.0
2018-Feb-12 12:30N 10°59' W 074°46'0 0.0
2018-Feb-11 21:44N 10°59' W 074°46'2 5.4
2018-Feb-11 21:27N 11°00' W 074°46'5 9.5
2018-Feb-11 20:58N 11°03' W 074°50'5 8.7
2018-Feb-11 20:27N 11°07' W 074°52'2 3.2
2018-Feb-11 19:57N 11°07' W 074°53'2 5.2
2018-Feb-11 19:29N 11°07' W 074°56'4 7.9
2018-Feb-11 19:01N 11°07' W 074°60'  
Track history (hours):
 
Tides and Currents Weather Stations Pressure Air Temp Water Temp Dewpoint Dewpoint Depression Visibility Wind Speed Wind Dir Waves Ship Positions

Genco Predator

Last reported at 2018-Feb-20 17:23 UTC. Time now 2018-May-24 00:36 UTC.
Position N 09°15' W 079°55'.
Warning: this ship's position is months out of date.

Length 190 m; draft 8.6 m.

Type: Cargo ship. MMSI: 538002113.

Date/timePositionNaut miles runAvg speedWind from/ knotsBaromVisibWave heightAir tempDewpointWater temp
2018-Feb-20 17:23N 09°15' W 079°55'0 0.0
2018-Feb-20 16:59N 09°15' W 079°55'0 0.1
2018-Feb-20 16:23N 09°15' W 079°55'0 0.0
2018-Feb-20 15:59N 09°15' W 079°55'0 0.0
2018-Feb-20 14:41N 09°15' W 079°55'0 0.1
2018-Feb-20 14:29N 09°15' W 079°55'0 0.0
2018-Feb-20 13:35N 09°15' W 079°55'0 0.0
2018-Feb-20 13:23N 09°15' W 079°55'0 0.1
2018-Feb-20 12:59N 09°15' W 079°55'0 0.0
2018-Feb-20 12:29N 09°15' W 079°55'0 0.0
2018-Feb-20 11:59N 09°15' W 079°55'0 0.0
2018-Feb-20 11:29N 09°15' W 079°55'0 0.0
2018-Feb-20 10:59N 09°15' W 079°55'0 0.0
2018-Feb-20 10:29N 09°15' W 079°55'0 0.0
2018-Feb-20 09:59N 09°15' W 079°55'0 0.0
2018-Feb-20 09:29N 09°15' W 079°55'0 0.0
2018-Feb-20 08:53N 09°15' W 079°55'0 0.0
2018-Feb-20 08:23N 09°15' W 079°55'0 0.0
2018-Feb-20 07:56N 09°15' W 079°55'0 0.2
2018-Feb-20 07:30N 09°15' W 079°55'1 2.9
2018-Feb-20 06:59N 09°16' W 079°55'0 0.4
2018-Feb-20 06:30N 09°16' W 079°55'0 0.6
2018-Feb-20 05:49N 09°17' W 079°55'1 1.6
2018-Feb-20 05:30N 09°17' W 079°55'2 3.5
2018-Feb-20 05:00N 09°19' W 079°55'3 6.4
2018-Feb-20 04:31N 09°22' W 079°56'0 0.6
2018-Feb-20 03:59N 09°22' W 079°56'0 0.0
2018-Feb-20 03:29N 09°22' W 079°56'0 0.0
2018-Feb-20 02:59N 09°22' W 079°56'0 0.0
2018-Feb-20 02:29N 09°22' W 079°56'0 0.0
2018-Feb-20 01:56N 09°22' W 079°56'0 0.0
2018-Feb-20 01:29N 09°22' W 079°56'0 0.0
2018-Feb-20 00:59N 09°22' W 079°56'0 0.0
2018-Feb-20 00:29N 09°22' W 079°56'0 0.0
2018-Feb-19 23:59N 09°22' W 079°56'0 0.0
2018-Feb-19 23:29N 09°22' W 079°56'0 0.0
2018-Feb-19 22:59N 09°22' W 079°56'0 0.0
2018-Feb-19 22:29N 09°22' W 079°56'0 0.0
2018-Feb-19 21:59N 09°22' W 079°56'0 0.0
2018-Feb-19 21:23N 09°22' W 079°56'0 0.0
2018-Feb-19 20:59N 09°22' W 079°56'0 0.0
2018-Feb-19 20:29N 09°22' W 079°56'0 0.0
2018-Feb-19 19:59N 09°22' W 079°56'0 0.0
2018-Feb-19 19:29N 09°22' W 079°56'0 0.0
2018-Feb-19 18:59N 09°22' W 079°56'0 0.0
2018-Feb-19 18:29N 09°22' W 079°56'0 0.0
2018-Feb-19 17:59N 09°22' W 079°56'0 0.0
2018-Feb-19 17:29N 09°22' W 079°56'0 0.0
2018-Feb-19 16:59N 09°22' W 079°56'0 0.0
2018-Feb-19 16:29N 09°22' W 079°56'0 0.0
2018-Feb-19 15:59N 09°22' W 079°56'0 0.0
2018-Feb-19 15:29N 09°22' W 079°56'4 2.2
2018-Feb-19 13:51N 09°26' W 079°56'0 0.2
2018-Feb-19 13:27N 09°26' W 079°56'0 0.0
2018-Feb-19 12:54N 09°26' W 079°56'0 0.0
2018-Feb-19 12:21N 09°26' W 079°56'0 0.0
2018-Feb-19 12:00N 09°26' W 079°56'0 0.1
2018-Feb-19 11:30N 09°26' W 079°56'0 0.0
2018-Feb-19 10:54N 09°26' W 079°56'0 0.0
2018-Feb-19 10:30N 09°26' W 079°56'0 0.0
2018-Feb-19 10:00N 09°26' W 079°56'0 0.0
2018-Feb-19 09:18N 09°26' W 079°56'0 0.0
2018-Feb-19 09:00N 09°26' W 079°56'0 0.0
2018-Feb-19 08:24N 09°26' W 079°56'0 0.0
2018-Feb-19 07:54N 09°26' W 079°56'0 0.0
2018-Feb-19 07:30N 09°26' W 079°56'0 0.0
2018-Feb-19 06:54N 09°26' W 079°56'0 0.1
2018-Feb-19 06:30N 09°26' W 079°56'0 0.1
2018-Feb-19 06:00N 09°26' W 079°56'0 0.1
2018-Feb-19 05:30N 09°26' W 079°56'0 0.1
2018-Feb-19 05:00N 09°26' W 079°56'0 0.0
2018-Feb-19 04:30N 09°26' W 079°56'0 0.1
2018-Feb-19 04:00N 09°26' W 079°56'0 0.1
2018-Feb-19 03:30N 09°26' W 079°56'0 0.1
2018-Feb-19 03:00N 09°26' W 079°56'0 0.1
2018-Feb-19 02:30N 09°26' W 079°56'0 0.0
2018-Feb-19 02:00N 09°26' W 079°56'0 0.0
2018-Feb-19 01:30N 09°26' W 079°56'0 0.0
2018-Feb-19 01:00N 09°26' W 079°56'0 0.1
2018-Feb-19 00:30N 09°26' W 079°56'0 0.0
2018-Feb-18 23:57N 09°26' W 079°56'0 0.0
2018-Feb-18 23:30N 09°26' W 079°56'0 0.1
2018-Feb-18 23:00N 09°26' W 079°56'0 0.5
2018-Feb-18 22:30N 09°26' W 079°56'0 0.6
2018-Feb-18 22:00N 09°26' W 079°56'2 3.4
2018-Feb-18 21:30N 09°26' W 079°54'4 7.8
2018-Feb-18 21:00N 09°30' W 079°53'30211.3
2018-Feb-17 18:21N 11°05' W 075°01'512.8
2018-Feb-17 17:58N 11°06' W 074°57'510.8
2018-Feb-17 17:30N 11°07' W 074°51'611.3
2018-Feb-17 16:58N 11°02' W 074°48'4 8.6
2018-Feb-17 16:29N 10°58' W 074°46'0 0.0
2018-Feb-17 15:59N 10°58' W 074°46'0 0.0
2018-Feb-17 15:29N 10°58' W 074°46'0 0.0
2018-Feb-17 14:56N 10°58' W 074°46'0 0.0
2018-Feb-17 14:29N 10°58' W 074°46'0 0.0
2018-Feb-17 13:59N 10°58' W 074°46'0 0.0
2018-Feb-17 13:29N 10°58' W 074°46'0 0.0
2018-Feb-17 12:59N 10°58' W 074°46'0 0.0
2018-Feb-17 12:29N 10°58' W 074°46'0 0.0
2018-Feb-17 11:59N 10°58' W 074°46'0 0.0
2018-Feb-17 11:26N 10°58' W 074°46'0 0.0
2018-Feb-17 10:56N 10°58' W 074°46'0 0.0
2018-Feb-17 10:29N 10°58' W 074°46'0 0.0
2018-Feb-17 09:59N 10°58' W 074°46'0 0.0
2018-Feb-17 09:29N 10°58' W 074°46'0 0.0
2018-Feb-17 08:59N 10°58' W 074°46'0 0.0
2018-Feb-17 08:29N 10°58' W 074°46'0 0.0
2018-Feb-17 07:56N 10°58' W 074°46'0 0.0
2018-Feb-17 07:23N 10°58' W 074°46'0 0.0
2018-Feb-17 06:59N 10°58' W 074°46'0 0.0
2018-Feb-17 06:29N 10°58' W 074°46'0 0.0
2018-Feb-17 05:59N 10°58' W 074°46'0 0.0
2018-Feb-17 05:29N 10°58' W 074°46'0 0.0
2018-Feb-17 04:59N 10°58' W 074°46'0 0.0
2018-Feb-17 04:29N 10°58' W 074°46'0 0.0
2018-Feb-17 03:59N 10°58' W 074°46'0 0.0
2018-Feb-17 03:26N 10°58' W 074°46'0 0.0
2018-Feb-17 02:59N 10°58' W 074°46'0 0.0
2018-Feb-17 02:29N 10°58' W 074°46'0 0.0
2018-Feb-17 01:59N 10°58' W 074°46'0 0.0
2018-Feb-17 01:29N 10°58' W 074°46'0 0.0
2018-Feb-17 00:59N 10°58' W 074°46'0 0.0
2018-Feb-17 00:26N 10°58' W 074°46'0 0.0
2018-Feb-16 23:59N 10°58' W 074°46'0 0.0
2018-Feb-16 23:29N 10°58' W 074°46'0 0.0
2018-Feb-16 22:59N 10°58' W 074°46'0 0.0
2018-Feb-16 22:29N 10°58' W 074°46'0 0.0
2018-Feb-16 21:59N 10°58' W 074°46'0 0.0
2018-Feb-16 21:29N 10°58' W 074°46'0 0.0
2018-Feb-16 20:59N 10°58' W 074°46'0 0.0
2018-Feb-16 20:29N 10°58' W 074°46'0 0.0
2018-Feb-16 19:59N 10°58' W 074°46'0 0.0
2018-Feb-16 19:29N 10°58' W 074°46'0 0.0
2018-Feb-16 18:59N 10°58' W 074°46'0 0.0
2018-Feb-16 18:29N 10°58' W 074°46'0 0.0
2018-Feb-16 17:59N 10°58' W 074°46'0 0.0
2018-Feb-16 17:29N 10°58' W 074°46'0 0.0
2018-Feb-16 16:59N 10°58' W 074°46'0 0.0
2018-Feb-16 16:20N 10°58' W 074°46'0 0.0
2018-Feb-16 15:59N 10°58' W 074°46'0 0.0
2018-Feb-16 15:29N 10°58' W 074°46'0 0.0
2018-Feb-16 14:59N 10°58' W 074°46'0 0.0
2018-Feb-16 14:29N 10°58' W 074°46'0 0.0
2018-Feb-16 13:59N 10°58' W 074°46'0 0.0
2018-Feb-16 13:23N 10°58' W 074°46'0 0.0
2018-Feb-16 12:59N 10°58' W 074°46'0 0.0
2018-Feb-16 12:29N 10°58' W 074°46'0 0.0
2018-Feb-16 11:53N 10°58' W 074°46'0 0.0
2018-Feb-16 11:29N 10°58' W 074°46'0 0.0
2018-Feb-16 10:47N 10°58' W 074°46'0 0.0
2018-Feb-16 10:29N 10°58' W 074°46'0 0.0
2018-Feb-16 02:41N 10°58' W 074°46'0 0.0
2018-Feb-16 02:23N 10°58' W 074°46'0 0.0
2018-Feb-16 01:59N 10°58' W 074°46'0 0.0
2018-Feb-16 01:29N 10°58' W 074°46'0 0.0
2018-Feb-16 00:59N 10°58' W 074°46'0 0.0
2018-Feb-16 00:29N 10°58' W 074°46'0 0.0
2018-Feb-15 23:59N 10°58' W 074°46'0 0.0
2018-Feb-15 20:50N 10°58' W 074°46'0 0.0
2018-Feb-15 13:02N 10°58' W 074°46'0 0.0
2018-Feb-15 12:44N 10°58' W 074°46'0 0.0
2018-Feb-15 12:29N 10°58' W 074°46'0 0.0
2018-Feb-15 11:59N 10°58' W 074°46'0 0.0
2018-Feb-15 09:59N 10°58' W 074°46'0 0.0
2018-Feb-15 09:17N 10°58' W 074°46'0 0.0
2018-Feb-15 06:20N 10°58' W 074°46'0 0.0
2018-Feb-15 05:56N 10°58' W 074°46'0 0.0
2018-Feb-15 05:23N 10°58' W 074°46'0 0.0
2018-Feb-15 04:56N 10°58' W 074°46'0 0.0
2018-Feb-15 03:29N 10°58' W 074°46'0 0.0
2018-Feb-14 19:35N 10°58' W 074°46'0 0.3
2018-Feb-14 19:28N 10°58' W 074°45'1 1.2
2018-Feb-14 19:00N 10°59' W 074°46'0 0.0
2018-Feb-14 18:30N 10°59' W 074°46'0 0.0
2018-Feb-14 18:00N 10°59' W 074°46'0 0.0
2018-Feb-14 17:30N 10°59' W 074°46'0 0.0
2018-Feb-14 17:00N 10°59' W 074°46'0 0.0
2018-Feb-14 16:30N 10°59' W 074°46'0 0.0
2018-Feb-14 16:00N 10°59' W 074°46'0 0.0
2018-Feb-14 15:30N 10°59' W 074°46'0 0.0
2018-Feb-14 15:00N 10°59' W 074°46'0 0.0
2018-Feb-14 14:27N 10°59' W 074°46'0 0.0
2018-Feb-14 14:00N 10°59' W 074°46'0 0.0
2018-Feb-14 13:30N 10°59' W 074°46'0 0.0
2018-Feb-14 13:00N 10°59' W 074°46'0 0.0
2018-Feb-14 12:30N 10°59' W 074°46'0 0.0
2018-Feb-14 11:57N 10°59' W 074°46'0 0.0
2018-Feb-13 23:42N 10°59' W 074°46'0 0.0
2018-Feb-13 18:54N 10°59' W 074°46'0 0.0
2018-Feb-13 17:57N 10°59' W 074°46'0 0.0
2018-Feb-13 17:21N 10°59' W 074°46'0 0.0
2018-Feb-13 15:18N 10°59' W 074°46'0 0.0
2018-Feb-13 15:00N 10°59' W 074°46'0 0.0
2018-Feb-13 14:21N 10°59' W 074°46'0 0.0
2018-Feb-13 13:51N 10°59' W 074°46'0 0.0
2018-Feb-13 13:12N 10°59' W 074°46'0 0.0
2018-Feb-13 13:00N 10°59' W 074°46'0 0.0
2018-Feb-13 12:24N 10°59' W 074°46'0 0.0
2018-Feb-12 19:42N 10°59' W 074°46'0 0.0
2018-Feb-12 18:15N 10°59' W 074°46'0 0.0
2018-Feb-12 18:00N 10°59' W 074°46'0 0.0
2018-Feb-12 17:27N 10°59' W 074°46'0 0.0
2018-Feb-12 17:00N 10°59' W 074°46'0 0.0
2018-Feb-12 16:27N 10°59' W 074°46'0 0.0
2018-Feb-12 16:00N 10°59' W 074°46'0 0.0
2018-Feb-12 15:12N 10°59' W 074°46'0 0.0
2018-Feb-12 13:27N 10°59' W 074°46'0 0.0
2018-Feb-12 13:00N 10°59' W 074°46'0 0.0
2018-Feb-12 12:30N 10°59' W 074°46'0 0.0
2018-Feb-11 21:44N 10°59' W 074°46'2 5.4
2018-Feb-11 21:27N 11°00' W 074°46'5 9.5
2018-Feb-11 20:58N 11°03' W 074°50'5 8.7
2018-Feb-11 20:27N 11°07' W 074°52'2 3.2
2018-Feb-11 19:57N 11°07' W 074°53'2 5.2
2018-Feb-11 19:29N 11°07' W 074°56'4 7.9
2018-Feb-11 19:01N 11°07' W 074°60'  

Dump ship's entire track history